Time;durP1;ratioP1;P1;durP2;ratioP2;P2;SDS_P1;SDS_P2;PMS_P1;PMS_P2;Temp;Humidity;BMP_temperature;BMP_pressure;BME280_temperature;BME280_humidity;BME280_pressure;Samples;Min_cycle;Max_cycle;Signal;HPM_P1;HPM_P2
2023/05/05 00:00:20;;;;;;;8.75;7.78;;;22.70;76.40;;;;;;6228440;28;84048;-78
2023/05/05 00:03:22;;;;;;;9.00;7.75;;;22.70;76.40;;;;;;6217712;28;82927;-79
2023/05/05 00:06:24;;;;;;;8.57;7.68;;;22.70;76.40;;;;;;6210209;28;84017;-78
2023/05/05 00:09:26;;;;;;;8.50;7.60;;;22.70;76.40;;;;;;6221147;28;83369;-79
2023/05/05 00:12:29;;;;;;;10.75;7.90;;;22.70;76.40;;;;;;6244321;28;84412;-78
2023/05/05 00:15:32;;;;;;;8.80;8.00;;;22.70;76.30;;;;;;6242448;28;83077;-78
2023/05/05 00:18:34;;;;;;;9.15;8.25;;;22.70;76.40;;;;;;6219431;28;84998;-78
2023/05/05 00:21:36;;;;;;;8.57;7.65;;;22.70;76.30;;;;;;6233133;28;84025;-77
2023/05/05 00:24:38;;;;;;;9.75;7.90;;;22.70;76.30;;;;;;6220587;28;84104;-78
2023/05/05 00:27:40;;;;;;;9.32;8.43;;;22.70;76.40;;;;;;6234811;27;84130;-78
2023/05/05 00:30:43;;;;;;;9.20;8.30;;;22.70;76.30;;;;;;6227161;28;84172;-77
2023/05/05 00:33:45;;;;;;;9.50;8.40;;;22.70;76.40;;;;;;6224433;28;82987;-78
2023/05/05 00:36:47;;;;;;;9.20;8.27;;;22.70;76.30;;;;;;6234035;28;84226;-77
2023/05/05 00:39:49;;;;;;;9.07;8.18;;;22.60;76.20;;;;;;6222504;28;83361;-77
2023/05/05 00:42:52;;;;;;;9.07;8.20;;;22.60;76.20;;;;;;6234841;28;84115;-77
2023/05/05 00:46:01;;;;;;;9.35;8.40;;;22.60;76.20;;;;;;6233531;28;84053;-77
2023/05/05 00:49:03;;;;;;;9.40;8.40;;;22.60;76.20;;;;;;6246081;28;85550;-79
2023/05/05 00:52:06;;;;;;;9.32;8.43;;;22.60;77.10;;;;;;6220846;28;84068;-79
2023/05/05 00:55:09;;;;;;;10.00;8.90;;;22.60;76.20;;;;;;6225472;28;82826;-78
2023/05/05 00:58:12;;;;;;;10.25;9.15;;;22.60;76.20;;;;;;6224686;28;84078;-78
2023/05/05 01:01:15;;;;;;;10.10;9.02;;;22.60;76.20;;;;;;6224081;28;83923;-77
2023/05/05 01:04:17;;;;;;;10.10;9.10;;;22.60;76.20;;;;;;6237817;28;82909;-78
2023/05/05 01:07:27;;;;;;;10.70;9.60;;;22.60;76.20;;;;;;6243552;28;84110;-77
2023/05/05 01:10:36;;;;;;;10.25;9.25;;;22.60;76.20;;;;;;6244922;27;83291;-79
2023/05/05 01:13:49;;;;;;;10.40;9.40;;;22.60;76.20;;;;;;6229604;27;83796;-77
2023/05/05 01:16:58;;;;;;;10.13;9.18;;;22.60;76.10;;;;;;6239062;28;86436;-78
2023/05/05 01:20:12;;;;;;;10.00;9.10;;;22.60;76.20;;;;;;6231793;27;83909;-79
2023/05/05 01:23:21;;;;;;;10.35;9.27;;;22.60;76.20;;;;;;6233303;28;84093;-79
2023/05/05 01:26:37;;;;;;;10.30;9.10;;;22.60;76.20;;;;;;6233412;28;82919;-80
2023/05/05 01:29:58;;;;;;;10.95;9.85;;;22.60;76.20;;;;;;6236818;28;82920;-78
2023/05/05 01:33:06;;;;;;;11.05;9.95;;;22.60;76.10;;;;;;6228703;28;84119;-80
2023/05/05 01:36:21;;;;;;;10.35;9.35;;;22.60;76.20;;;;;;6213452;28;82916;-78
2023/05/05 01:39:27;;;;;;;10.65;9.65;;;22.60;76.20;;;;;;6247069;28;84285;-78
2023/05/05 01:42:32;;;;;;;10.93;9.82;;;22.60;76.10;;;;;;6226323;28;82477;-79
2023/05/05 01:45:37;;;;;;;11.32;10.07;;;22.50;76.10;;;;;;6212686;28;84068;-79
2023/05/05 01:48:43;;;;;;;10.20;9.20;;;22.60;76.20;;;;;;6222815;28;84213;-79
2023/05/05 01:51:47;;;;;;;10.70;9.70;;;22.50;76.10;;;;;;6221822;28;85018;-79
2023/05/05 01:54:50;;;;;;;10.45;9.30;;;22.60;76.10;;;;;;6218400;28;84133;-78
2023/05/05 01:57:54;;;;;;;10.55;9.55;;;22.50;76.10;;;;;;6229597;28;84015;-79
2023/05/05 02:00:58;;;;;;;10.73;9.73;;;22.50;76.10;;;;;;6241982;28;83888;-78
2023/05/05 02:04:03;;;;;;;10.85;9.75;;;22.50;76.10;;;;;;6236346;27;84197;-80
2023/05/05 02:07:06;;;;;;;10.73;9.73;;;22.50;76.10;;;;;;6218317;28;84354;-79
2023/05/05 02:10:10;;;;;;;11.35;10.25;;;22.50;76.00;;;;;;6232061;28;83116;-79
2023/05/05 02:13:14;;;;;;;11.63;10.43;;;22.50;76.10;;;;;;6246631;27;83988;-80
2023/05/05 02:16:17;;;;;;;11.38;10.23;;;22.50;76.10;;;;;;6228346;28;84074;-80
2023/05/05 02:19:24;;;;;;;10.40;9.40;;;22.50;76.00;;;;;;6224443;28;84007;-80
2023/05/05 02:22:26;;;;;;;11.02;9.93;;;22.50;76.10;;;;;;6235598;28;84975;-79
2023/05/05 02:25:36;;;;;;;10.63;9.63;;;22.50;76.10;;;;;;6237073;27;84006;-80
2023/05/05 02:28:42;;;;;;;11.25;10.15;;;22.50;76.00;;;;;;6220471;28;84026;-80
2023/05/05 02:31:48;;;;;;;11.23;10.13;;;22.50;76.00;;;;;;6234916;28;83990;-80
2023/05/05 02:34:54;;;;;;;10.52;9.45;;;22.50;76.10;;;;;;6238307;28;84070;-79
2023/05/05 02:38:01;;;;;;;11.23;10.13;;;22.50;76.00;;;;;;6219291;28;84024;-80
2023/05/05 02:41:04;;;;;;;11.25;10.02;;;22.50;75.90;;;;;;6225402;28;84021;-80
2023/05/05 02:44:08;;;;;;;10.32;9.32;;;22.50;76.00;;;;;;6226637;27;83625;-79
2023/05/05 02:47:10;;;;;;;10.15;9.15;;;22.50;76.00;;;;;;6224931;28;84023;-80
2023/05/05 02:50:14;;;;;;;11.52;10.35;;;22.50;76.10;;;;;;6228119;28;84013;-80
2023/05/05 02:53:16;;;;;;;10.63;9.63;;;22.50;76.00;;;;;;6214946;28;83925;-78
2023/05/05 02:56:30;;;;;;;10.43;9.43;;;22.50;76.00;;;;;;6222865;27;82952;-79
2023/05/05 02:59:38;;;;;;;11.02;9.93;;;22.50;76.00;;;;;;6226721;28;85087;-78
2023/05/05 03:02:44;;;;;;;10.52;9.52;;;22.40;75.90;;;;;;6219076;28;84112;-78
2023/05/05 03:05:54;;;;;;;11.07;9.88;;;22.50;75.90;;;;;;6220835;28;84248;-79
2023/05/05 03:09:03;;;;;;;10.20;9.20;;;22.40;75.90;;;;;;6233797;28;82956;-81
2023/05/05 03:12:08;;;;;;;11.02;9.85;;;22.50;76.00;;;;;;6215284;28;84075;-81
2023/05/05 03:15:12;;;;;;;9.73;8.80;;;22.50;75.90;;;;;;6235553;28;83240;-80
2023/05/05 03:18:16;;;;;;;10.23;9.18;;;22.50;75.90;;;;;;6225269;28;83949;-80
2023/05/05 03:21:20;;;;;;;10.18;9.18;;;22.50;75.90;;;;;;6250386;28;82638;-80
2023/05/05 03:24:22;;;;;;;9.73;8.80;;;22.40;75.90;;;;;;6244804;27;84965;-78
2023/05/05 03:27:24;;;;;;;10.05;9.05;;;22.40;75.90;;;;;;6236019;28;84110;-78
2023/05/05 03:30:26;;;;;;;9.88;8.88;;;22.50;76.00;;;;;;6226589;28;86819;-78
2023/05/05 03:33:28;;;;;;;9.60;8.70;;;22.50;75.90;;;;;;6234888;28;84280;-79
2023/05/05 03:36:32;;;;;;;9.75;8.75;;;22.40;75.90;;;;;;6226019;28;83559;-78
2023/05/05 03:39:34;;;;;;;9.48;8.57;;;22.40;75.90;;;;;;6218425;28;84067;-78
2023/05/05 03:42:36;;;;;;;9.77;8.77;;;22.40;75.90;;;;;;6222403;28;82927;-78
2023/05/05 03:45:38;;;;;;;9.55;8.65;;;22.40;75.90;;;;;;6212170;28;83305;-77
2023/05/05 03:48:40;;;;;;;9.00;8.10;;;22.40;75.80;;;;;;6234916;27;84421;-78
2023/05/05 03:51:43;;;;;;;9.38;8.48;;;22.40;75.80;;;;;;6233199;27;83742;-78
2023/05/05 03:54:46;;;;;;;8.40;7.60;;;22.40;75.90;;;;;;6240797;27;84973;-72
2023/05/05 03:57:48;;;;;;;10.82;7.68;;;22.40;75.60;;;;;;6222840;27;84298;-77
2023/05/05 04:00:50;;;;;;;8.30;7.50;;;22.40;75.40;;;;;;6231136;28;84272;-75
2023/05/05 04:03:52;;;;;;;8.40;7.50;;;22.40;75.10;;;;;;6228075;28;84032;-75
2023/05/05 04:06:55;;;;;;;8.95;7.20;;;22.40;75.20;;;;;;6215312;28;84029;-77
2023/05/05 04:09:57;;;;;;;8.10;7.30;;;22.40;75.40;;;;;;6225155;28;84497;-76
2023/05/05 04:12:59;;;;;;;7.55;6.85;;;22.40;75.50;;;;;;6217340;28;83799;-77
2023/05/05 04:16:01;;;;;;;8.43;7.63;;;22.40;75.50;;;;;;6243128;27;83878;-77
2023/05/05 04:19:03;;;;;;;7.95;7.15;;;22.40;75.60;;;;;;6234840;28;84031;-78
2023/05/05 04:22:07;;;;;;;8.23;7.40;;;22.40;75.50;;;;;;6231929;28;84130;-77
2023/05/05 04:25:09;;;;;;;8.45;7.25;;;22.40;76.50;;;;;;6222655;28;84891;-77
2023/05/05 04:28:11;;;;;;;10.10;7.78;;;22.40;75.70;;;;;;6208462;28;83800;-79
2023/05/05 04:31:13;;;;;;;7.30;6.60;;;22.40;75.70;;;;;;6223666;28;84007;-76
2023/05/05 04:34:15;;;;;;;7.47;6.78;;;22.40;75.70;;;;;;6231161;28;84137;-78
2023/05/05 04:37:19;;;;;;;7.93;7.13;;;22.40;75.60;;;;;;6233742;28;84070;-77
2023/05/05 04:40:21;;;;;;;7.50;6.80;;;22.40;75.70;;;;;;6221205;28;84383;-77
2023/05/05 04:43:23;;;;;;;7.00;6.40;;;22.40;75.60;;;;;;6227799;28;85069;-78
2023/05/05 04:46:25;;;;;;;7.13;6.43;;;22.50;75.70;;;;;;6241137;28;82192;-78
2023/05/05 04:49:29;;;;;;;7.30;6.60;;;22.40;75.70;;;;;;6229242;27;83684;-79
2023/05/05 04:52:33;;;;;;;7.90;7.10;;;22.40;75.70;;;;;;6225203;28;83991;-77
2023/05/05 04:55:35;;;;;;;7.13;6.43;;;22.50;75.70;;;;;;6216073;28;85014;-77
2023/05/05 04:58:37;;;;;;;7.47;6.70;;;22.40;75.70;;;;;;6213681;28;82928;-78
2023/05/05 05:01:39;;;;;;;7.22;6.45;;;22.40;75.60;;;;;;6235356;28;84040;-77
2023/05/05 05:04:41;;;;;;;8.57;6.75;;;22.50;75.70;;;;;;6237449;28;84126;-78
2023/05/05 05:07:45;;;;;;;7.15;6.45;;;22.50;75.70;;;;;;6237959;27;83975;-75
2023/05/05 05:10:47;;;;;;;7.50;6.75;;;22.40;75.60;;;;;;6216373;28;83906;-75
2023/05/05 05:13:49;;;;;;;6.85;6.15;;;22.40;75.60;;;;;;6228936;28;84466;-76
2023/05/05 05:16:51;;;;;;;7.60;6.57;;;22.40;75.60;;;;;;6221469;28;83288;-75
2023/05/05 05:19:54;;;;;;;7.25;6.53;;;22.50;75.70;;;;;;6220765;28;83988;-78
2023/05/05 05:23:00;;;;;;;8.68;6.43;;;22.50;75.70;;;;;;6244004;28;83852;-77
2023/05/05 05:26:04;;;;;;;7.03;6.28;;;22.50;75.70;;;;;;6209261;28;83836;-78
2023/05/05 05:29:06;;;;;;;6.60;5.82;;;22.50;75.70;;;;;;6220963;28;85666;-76
2023/05/05 05:32:07;;;;;;;7.38;6.30;;;22.50;75.70;;;;;;6241005;28;82800;-75
2023/05/05 05:35:10;;;;;;;8.38;6.25;;;22.50;75.70;;;;;;6234381;28;83973;-77
2023/05/05 05:38:13;;;;;;;7.03;6.32;;;22.50;75.60;;;;;;6219940;28;84025;-76
2023/05/05 05:41:15;;;;;;;6.70;6.00;;;22.50;75.60;;;;;;6231482;28;83210;-76
2023/05/05 05:44:17;;;;;;;6.82;5.90;;;22.50;75.70;;;;;;6222241;28;84420;-76
2023/05/05 05:47:19;;;;;;;7.03;6.32;;;22.50;76.50;;;;;;6243218;27;83401;-76
2023/05/05 05:50:21;;;;;;;6.72;6.07;;;22.50;75.70;;;;;;6221300;28;84005;-77
2023/05/05 05:53:25;;;;;;;6.65;5.95;;;22.50;75.70;;;;;;6245652;28;84020;-76
2023/05/05 05:56:27;;;;;;;6.63;6.03;;;22.50;75.70;;;;;;6244872;28;84948;-77
2023/05/05 05:59:29;;;;;;;6.80;5.97;;;22.50;75.80;;;;;;6219240;28;84028;-75
2023/05/05 06:02:31;;;;;;;7.10;6.40;;;22.50;75.70;;;;;;6238245;28;83606;-77
2023/05/05 06:05:33;;;;;;;6.72;6.00;;;22.50;75.80;;;;;;6235820;28;84012;-77
2023/05/05 06:08:36;;;;;;;6.70;5.90;;;22.50;75.80;;;;;;6248478;28;82929;-77
2023/05/05 06:11:38;;;;;;;6.47;5.88;;;22.50;75.80;;;;;;6233805;27;84039;-77
2023/05/05 06:14:40;;;;;;;6.40;5.80;;;22.50;75.90;;;;;;6226289;27;83303;-76
2023/05/05 06:17:42;;;;;;;6.35;5.70;;;22.50;75.90;;;;;;6217084;28;84258;-76
2023/05/05 06:20:44;;;;;;;6.57;5.90;;;22.50;75.90;;;;;;6231960;28;85599;-78
2023/05/05 06:23:48;;;;;;;6.68;5.97;;;22.50;75.90;;;;;;6230674;28;84406;-76
2023/05/05 06:26:50;;;;;;;6.70;5.93;;;22.50;75.90;;;;;;6225395;28;85063;-77
2023/05/05 06:29:52;;;;;;;7.03;6.32;;;22.60;76.00;;;;;;6240436;28;84144;-77
2023/05/05 06:32:54;;;;;;;7.35;6.28;;;22.50;75.90;;;;;;6230197;28;84120;-77
2023/05/05 06:35:56;;;;;;;6.40;5.80;;;22.60;76.10;;;;;;6234486;27;84803;-77
2023/05/05 06:39:00;;;;;;;6.68;5.97;;;22.50;76.00;;;;;;6238986;28;84069;-75
2023/05/05 06:42:02;;;;;;;6.90;6.20;;;22.60;76.10;;;;;;6222901;28;84009;-78
2023/05/05 06:45:05;;;;;;;6.25;5.65;;;22.60;76.10;;;;;;6223804;28;83002;-77
2023/05/05 06:48:07;;;;;;;6.03;5.50;;;22.60;76.10;;;;;;6233719;28;82146;-77
2023/05/05 06:51:09;;;;;;;6.40;5.45;;;22.60;76.10;;;;;;6222508;28;83895;-77
2023/05/05 06:54:13;;;;;;;6.97;5.97;;;22.60;76.20;;;;;;6234490;27;84866;-76
2023/05/05 06:57:15;;;;;;;6.47;5.85;;;22.60;76.20;;;;;;6232710;28;85126;-77
2023/05/05 07:00:18;;;;;;;6.45;5.80;;;22.60;76.10;;;;;;6230559;28;84254;-78
2023/05/05 07:03:20;;;;;;;6.85;5.80;;;22.60;76.50;;;;;;6227390;28;84067;-79
2023/05/05 07:06:22;;;;;;;6.65;5.78;;;22.60;76.70;;;;;;6229809;28;83231;-80
2023/05/05 07:09:25;;;;;;;6.07;5.47;;;22.50;76.70;;;;;;6248314;28;84048;-76
2023/05/05 07:12:29;;;;;;;6.20;5.60;;;22.60;77.00;;;;;;6228136;28;84048;-78
2023/05/05 07:15:31;;;;;;;5.97;5.38;;;22.60;77.10;;;;;;6217530;28;83919;-79
2023/05/05 07:18:33;;;;;;;6.10;5.50;;;22.60;77.10;;;;;;6227108;28;83634;-79
2023/05/05 07:21:36;;;;;;;7.63;5.35;;;22.60;77.20;;;;;;6234981;28;84255;-78
2023/05/05 07:24:40;;;;;;;6.90;5.78;;;22.60;77.20;;;;;;6234854;28;83990;-78
2023/05/05 07:27:42;;;;;;;7.25;5.50;;;22.60;77.00;;;;;;6232932;28;83990;-80
2023/05/05 07:30:44;;;;;;;6.20;5.60;;;22.60;76.90;;;;;;6234965;28;83958;-78
2023/05/05 07:33:46;;;;;;;6.10;5.50;;;22.60;77.00;;;;;;6224155;28;84035;-80
2023/05/05 07:36:48;;;;;;;6.05;4.97;;;22.60;77.40;;;;;;6212061;28;82929;-80
2023/05/05 07:39:51;;;;;;;6.80;5.57;;;22.60;77.40;;;;;;6233988;28;83995;-77
2023/05/05 07:42:53;;;;;;;5.80;5.30;;;22.60;77.70;;;;;;6219068;28;84095;-78
2023/05/05 07:49:52;;;;;;;6.63;5.38;;;22.60;77.80;;;;;;6236334;28;81515;-79
2023/05/05 07:52:54;;;;;;;5.50;5.00;;;22.60;77.80;;;;;;6236738;28;84275;-75
2023/05/05 07:55:57;;;;;;;5.75;5.07;;;22.60;77.80;;;;;;6230180;28;84007;-77
2023/05/05 07:59:00;;;;;;;6.32;5.60;;;22.60;78.10;;;;;;6238786;28;85004;-79
2023/05/05 08:02:01;;;;;;;6.38;5.13;;;22.60;78.30;;;;;;6219891;28;85214;-77
2023/05/05 08:05:04;;;;;;;5.55;5.05;;;22.60;78.60;;;;;;6233616;28;84166;-76
2023/05/05 08:08:06;;;;;;;5.97;5.15;;;22.60;78.10;;;;;;6238253;28;84021;-76
2023/05/05 08:11:09;;;;;;;6.05;5.30;;;22.70;78.30;;;;;;6218019;28;82940;-77
2023/05/05 08:14:11;;;;;;;6.13;4.97;;;22.60;78.60;;;;;;6233158;28;83928;-77
2023/05/05 08:17:13;;;;;;;6.80;5.78;;;22.60;78.80;;;;;;6230187;28;84056;-78
2023/05/05 08:20:16;;;;;;;5.88;5.28;;;22.60;79.00;;;;;;6226418;28;83296;-76
2023/05/05 08:23:18;;;;;;;6.85;5.28;;;22.60;79.10;;;;;;6238225;27;84394;-74
2023/05/05 08:26:21;;;;;;;6.28;5.05;;;22.60;79.50;;;;;;6226059;28;84369;-79
2023/05/05 08:29:23;;;;;;;8.20;5.05;;;22.70;80.50;;;;;;6222172;28;84969;-73
2023/05/05 08:32:25;;;;;;;8.60;5.13;;;22.70;84.00;;;;;;6229625;28;83857;-75
2023/05/05 08:35:27;;;;;;;9.05;5.90;;;22.80;84.70;;;;;;6222295;27;84068;-74
2023/05/05 08:38:29;;;;;;;14.95;5.88;;;22.80;86.10;;;;;;6216140;28;84024;-72
2023/05/05 08:41:33;;;;;;;10.40;5.65;;;22.80;87.30;;;;;;6227163;28;82766;-75
2023/05/05 08:44:35;;;;;;;9.48;5.88;;;22.90;87.70;;;;;;6235858;27;82932;-74
2023/05/05 08:47:38;;;;;;;11.90;6.05;;;22.80;88.70;;;;;;6236403;28;84049;-74
2023/05/05 08:50:46;;;;;;;11.32;5.90;;;22.80;89.10;;;;;;6216895;28;84917;-77
2023/05/05 08:53:56;;;;;;;7.93;5.75;;;22.80;89.00;;;;;;6229673;28;83274;-77
2023/05/05 08:57:01;;;;;;;10.73;5.68;;;22.80;88.20;;;;;;6231115;28;84214;-78
2023/05/05 09:00:04;;;;;;;9.98;5.65;;;22.90;88.10;;;;;;6223071;28;85104;-78
2023/05/05 09:03:07;;;;;;;12.82;6.00;;;22.90;88.80;;;;;;6221793;28;84041;-78
2023/05/05 09:06:09;;;;;;;9.63;5.80;;;22.80;89.30;;;;;;6225252;28;83950;-77
2023/05/05 09:09:11;;;;;;;10.07;5.78;;;22.80;89.70;;;;;;6234152;27;83655;-77
2023/05/05 09:12:17;;;;;;;7.82;5.40;;;22.80;90.00;;;;;;6230019;28;84041;-76
2023/05/05 09:15:19;;;;;;;11.25;5.28;;;22.80;89.60;;;;;;6234828;28;84249;-75
2023/05/05 09:18:21;;;;;;;9.27;5.75;;;22.90;89.40;;;;;;6216259;28;82943;-74
2023/05/05 09:21:25;;;;;;;9.02;5.90;;;22.90;89.40;;;;;;6232774;28;83303;-78
2023/05/05 09:24:27;;;;;;;9.27;5.28;;;22.90;89.70;;;;;;6232414;28;84662;-76
2023/05/05 09:27:30;;;;;;;10.13;5.47;;;22.90;89.90;;;;;;6226277;28;83011;-76
2023/05/05 09:30:32;;;;;;;10.15;5.40;;;22.90;89.90;;;;;;6224751;28;84983;-76
2023/05/05 09:33:35;;;;;;;10.60;5.43;;;22.90;89.80;;;;;;6230562;28;84178;-77
2023/05/05 09:36:46;;;;;;;12.40;5.68;;;22.90;89.60;;;;;;6243230;28;84440;-76
2023/05/05 09:39:54;;;;;;;8.48;5.22;;;22.90;89.60;;;;;;6240624;28;84100;-77
2023/05/05 09:43:02;;;;;;;8.38;5.28;;;22.90;89.60;;;;;;6227177;28;82916;-76
2023/05/05 09:46:08;;;;;;;10.05;5.20;;;23.00;89.50;;;;;;6233855;28;83701;-78
2023/05/05 09:49:14;;;;;;;8.85;5.00;;;23.00;89.20;;;;;;6241216;27;82922;-78
2023/05/05 09:52:17;;;;;;;9.10;5.13;;;23.00;88.90;;;;;;6239407;28;83222;-78
2023/05/05 09:55:19;;;;;;;11.10;5.13;;;22.90;88.30;;;;;;6221016;28;82914;-79
2023/05/05 09:58:24;;;;;;;7.68;5.00;;;22.90;87.50;;;;;;6225846;28;84041;-75
2023/05/05 10:01:26;;;;;;;12.32;5.15;;;23.00;87.40;;;;;;6222672;28;85515;-77
2023/05/05 10:04:30;;;;;;;11.15;5.72;;;23.00;87.90;;;;;;6237836;28;84035;-78
2023/05/05 10:07:32;;;;;;;9.88;5.50;;;23.00;90.00;;;;;;6246499;28;84215;-75
2023/05/05 10:10:35;;;;;;;8.73;5.90;;;23.00;90.60;;;;;;6239344;28;84394;-78
2023/05/05 10:13:41;;;;;;;9.57;5.78;;;23.00;91.70;;;;;;6223783;28;84027;-79
2023/05/05 10:16:49;;;;;;;8.05;5.20;;;23.10;92.50;;;;;;6237005;27;84163;-77
2023/05/05 10:19:53;;;;;;;13.43;6.88;;;23.10;92.10;;;;;;6214876;28;84343;-79
2023/05/05 10:22:57;;;;;;;9.93;5.18;;;23.10;93.80;;;;;;6235139;28;83289;-74
2023/05/05 10:26:02;;;;;;;10.57;5.05;;;23.10;91.90;;;;;;6239889;28;82839;-75
2023/05/05 10:29:09;;;;;;;12.68;5.68;;;23.10;91.00;;;;;;6225088;27;84076;-79
2023/05/05 10:32:21;;;;;;;8.88;4.75;;;23.10;90.60;;;;;;6213965;28;85358;-77
2023/05/05 10:35:25;;;;;;;9.00;5.28;;;23.10;90.30;;;;;;6227998;27;82896;-78
2023/05/05 10:38:30;;;;;;;6.22;4.68;;;23.10;89.70;;;;;;6225116;28;84036;-79
2023/05/05 10:41:32;;;;;;;8.27;5.10;;;23.10;89.00;;;;;;6230409;28;83945;-79
2023/05/05 10:44:36;;;;;;;9.40;4.97;;;23.10;88.60;;;;;;6214116;28;84248;-79
2023/05/05 10:47:39;;;;;;;6.55;5.28;;;23.10;88.30;;;;;;6224367;27;84086;-80
2023/05/05 10:50:49;;;;;;;6.38;4.53;;;23.10;87.80;;;;;;6246977;28;83917;-80
2023/05/05 10:53:57;;;;;;;6.50;4.63;;;23.10;87.30;;;;;;6234346;28;85486;-79
2023/05/05 10:57:01;;;;;;;7.10;4.57;;;23.10;86.90;;;;;;6230289;28;84089;-79
2023/05/05 11:00:07;;;;;;;8.10;4.80;;;23.10;86.60;;;;;;6233914;28;82567;-79
2023/05/05 11:03:22;;;;;;;6.95;4.70;;;23.10;86.40;;;;;;6234625;28;83956;-79
2023/05/05 11:06:24;;;;;;;7.50;4.47;;;23.10;86.40;;;;;;6242806;28;84067;-80
2023/05/05 11:09:29;;;;;;;7.80;4.70;;;23.10;86.20;;;;;;6218276;28;84113;-81
2023/05/05 11:12:33;;;;;;;6.50;4.68;;;23.10;86.10;;;;;;6215633;28;84049;-78
2023/05/05 11:15:40;;;;;;;6.70;4.68;;;23.10;85.90;;;;;;6230649;28;84036;-77
2023/05/05 11:18:43;;;;;;;6.75;4.53;;;23.10;86.70;;;;;;6238978;28;84169;-79
2023/05/05 11:22:01;;;;;;;8.00;4.75;;;23.10;85.70;;;;;;6235596;28;84085;-78
2023/05/05 11:25:50;;;;;;;6.25;4.32;;;23.10;89.30;;;;;;6236292;27;83064;-78
2023/05/05 11:29:01;;;;;;;7.88;4.57;;;23.10;87.60;;;;;;6232470;28;84068;-80
2023/05/05 11:32:12;;;;;;;6.97;4.47;;;23.10;87.60;;;;;;6227463;27;84107;-80
2023/05/05 11:35:15;;;;;;;5.95;4.35;;;23.20;87.40;;;;;;6230786;28;84856;-79
2023/05/05 11:38:19;;;;;;;6.15;4.43;;;23.20;88.30;;;;;;6225334;28;84127;-79
2023/05/05 11:41:35;;;;;;;8.82;4.90;;;23.10;86.90;;;;;;6222198;28;83608;-80
2023/05/05 11:44:37;;;;;;;6.20;4.50;;;23.10;86.90;;;;;;6228313;28;83976;-80
2023/05/05 11:47:40;;;;;;;8.13;4.63;;;23.10;86.90;;;;;;6237900;27;84298;-78
2023/05/05 11:50:41;;;;;;;10.07;4.55;;;23.10;86.90;;;;;;6214794;27;82873;-79
2023/05/05 11:53:45;;;;;;;6.78;4.25;;;23.10;87.10;;;;;;6237878;28;84000;-79
2023/05/05 11:56:51;;;;;;;7.47;4.50;;;23.10;86.90;;;;;;6229977;28;83284;-80
2023/05/05 11:59:55;;;;;;;6.38;4.00;;;23.10;86.60;;;;;;6237231;28;84245;-79
2023/05/05 12:02:57;;;;;;;7.40;4.30;;;23.10;86.50;;;;;;6220594;28;83696;-78
2023/05/05 12:05:59;;;;;;;5.03;4.03;;;23.10;86.30;;;;;;6250336;28;84914;-81
2023/05/05 12:09:02;;;;;;;6.75;4.50;;;23.10;86.10;;;;;;6232882;27;83966;-80
2023/05/05 12:12:06;;;;;;;7.38;4.53;;;23.10;86.00;;;;;;6257217;27;84770;-79
2023/05/05 12:15:10;;;;;;;6.15;4.57;;;23.10;86.00;;;;;;6258605;27;83996;-79
2023/05/05 12:18:18;;;;;;;5.30;4.50;;;23.10;85.90;;;;;;6247769;28;83642;-80
2023/05/05 12:21:20;;;;;;;7.05;4.80;;;23.10;85.80;;;;;;6241138;28;83998;-81
2023/05/05 12:24:23;;;;;;;4.38;3.90;;;23.10;85.70;;;;;;6235306;28;84050;-80
2023/05/05 12:27:28;;;;;;;6.00;3.90;;;23.10;85.70;;;;;;6224359;28;85949;-79
2023/05/05 12:30:30;;;;;;;5.03;4.03;;;23.10;85.60;;;;;;6219179;28;82770;-79
2023/05/05 12:33:39;;;;;;;7.38;4.18;;;23.10;85.50;;;;;;6229255;28;84108;-79
2023/05/05 12:36:41;;;;;;;7.03;3.92;;;23.10;85.40;;;;;;6207990;28;85306;-79
2023/05/05 12:39:43;;;;;;;5.07;3.85;;;23.10;85.40;;;;;;6222871;28;83999;-79
2023/05/05 12:42:46;;;;;;;6.13;4.15;;;23.10;85.20;;;;;;6225104;28;84054;-79
2023/05/05 12:45:49;;;;;;;5.95;4.15;;;23.10;84.90;;;;;;6238314;28;83332;-79
2023/05/05 12:49:03;;;;;;;5.80;4.00;;;23.10;84.90;;;;;;6247311;28;82613;-79
2023/05/05 12:52:06;;;;;;;6.57;4.05;;;23.10;84.70;;;;;;6209898;28;84074;-79
2023/05/05 12:55:10;;;;;;;5.00;3.75;;;23.10;84.70;;;;;;6210655;28;83994;-79
2023/05/05 12:58:13;;;;;;;4.88;4.00;;;23.10;84.70;;;;;;6233868;28;83279;-78
2023/05/05 13:01:15;;;;;;;5.28;4.20;;;23.10;84.70;;;;;;6216261;28;84049;-80
2023/05/05 13:04:18;;;;;;;6.60;4.32;;;23.00;84.50;;;;;;6230061;28;85953;-82
2023/05/05 13:07:21;;;;;;;5.25;4.10;;;23.10;84.60;;;;;;6222409;28;85009;-79
2023/05/05 13:10:23;;;;;;;5.55;3.97;;;23.10;84.60;;;;;;6222409;28;84199;-80
2023/05/05 13:13:27;;;;;;;6.25;3.83;;;23.10;84.60;;;;;;6212289;28;83158;-80
2023/05/05 13:16:29;;;;;;;5.35;3.72;;;23.10;84.50;;;;;;6236609;28;83958;-80
2023/05/05 13:19:31;;;;;;;4.82;3.80;;;23.00;84.20;;;;;;6227786;28;83989;-80
2023/05/05 13:22:33;;;;;;;5.63;3.90;;;23.10;84.20;;;;;;6235763;28;84019;-79
2023/05/05 13:25:36;;;;;;;4.47;4.07;;;23.10;84.20;;;;;;6260252;27;84387;-79
2023/05/05 13:28:40;;;;;;;4.80;3.95;;;23.10;84.10;;;;;;6241811;27;83348;-80
2023/05/05 13:31:41;;;;;;;4.68;3.67;;;23.10;84.00;;;;;;6222218;28;83299;-79
2023/05/05 13:34:43;;;;;;;4.47;3.90;;;23.10;84.00;;;;;;6226067;28;84736;-81
2023/05/05 13:37:46;;;;;;;4.30;3.60;;;23.00;83.90;;;;;;6222186;28;85217;-80
2023/05/05 13:40:48;;;;;;;4.50;4.10;;;23.00;84.70;;;;;;6214635;28;83971;-79
2023/05/05 13:43:52;;;;;;;6.47;4.00;;;23.00;83.90;;;;;;6226792;28;83972;-80
2023/05/05 13:46:54;;;;;;;4.10;3.70;;;23.10;83.80;;;;;;6233622;28;82971;-78
2023/05/05 13:49:56;;;;;;;5.32;4.05;;;23.10;83.80;;;;;;6231047;27;84404;-80
2023/05/05 13:52:58;;;;;;;5.05;3.85;;;23.10;83.70;;;;;;6244797;27;83997;-80
2023/05/05 13:56:00;;;;;;;4.20;3.60;;;23.10;83.60;;;;;;6221117;28;83993;-81
2023/05/05 13:59:03;;;;;;;4.75;3.75;;;23.10;83.50;;;;;;6231731;28;83530;-80
2023/05/05 14:02:06;;;;;;;4.20;3.80;;;23.10;83.50;;;;;;6237171;28;84104;-80
2023/05/05 14:05:09;;;;;;;3.67;3.33;;;23.10;83.50;;;;;;6227136;28;83970;-80
2023/05/05 14:08:11;;;;;;;4.82;3.70;;;23.00;83.40;;;;;;6225308;28;84906;-80
2023/05/05 14:11:15;;;;;;;4.20;3.78;;;23.10;83.40;;;;;;6215953;28;84069;-82
2023/05/05 14:14:19;;;;;;;4.72;3.60;;;23.00;83.30;;;;;;6222131;28;84100;-81
2023/05/05 14:17:21;;;;;;;3.78;3.38;;;23.00;83.30;;;;;;6227057;27;83652;-81
2023/05/05 14:20:23;;;;;;;3.92;3.53;;;23.00;83.30;;;;;;6229112;28;84016;-80
2023/05/05 14:23:25;;;;;;;5.15;3.78;;;23.00;83.20;;;;;;6235800;27;84276;-81
2023/05/05 14:26:28;;;;;;;4.88;3.75;;;23.00;83.20;;;;;;6251239;27;84006;-81
2023/05/05 14:29:31;;;;;;;4.30;3.72;;;23.00;83.10;;;;;;6237933;28;82490;-80
2023/05/05 14:32:33;;;;;;;4.45;3.40;;;23.10;83.20;;;;;;6245102;28;84124;-81
2023/05/05 14:35:35;;;;;;;3.90;3.50;;;23.10;83.20;;;;;;6227804;27;84059;-80
2023/05/05 14:38:37;;;;;;;3.90;3.53;;;23.00;83.10;;;;;;6218862;28;85296;-81
2023/05/05 14:41:39;;;;;;;5.75;4.00;;;23.10;83.20;;;;;;6232839;28;84019;-81
2023/05/05 14:44:42;;;;;;;4.22;3.58;;;23.10;83.20;;;;;;6227113;27;82940;-81
2023/05/05 14:47:44;;;;;;;4.00;3.60;;;23.00;83.20;;;;;;6224671;28;84180;-81
2023/05/05 14:50:46;;;;;;;3.83;3.42;;;23.00;83.10;;;;;;6224650;28;84292;-80
2023/05/05 14:53:48;;;;;;;4.18;3.35;;;23.00;83.10;;;;;;6243602;28;82908;-80
2023/05/05 14:56:50;;;;;;;4.40;3.90;;;23.00;83.20;;;;;;6243177;27;83940;-81
2023/05/05 14:59:54;;;;;;;3.83;3.42;;;23.10;83.20;;;;;;6239460;28;82968;-80
2023/05/05 15:02:56;;;;;;;3.83;3.53;;;23.10;83.00;;;;;;6222203;28;83241;-79
2023/05/05 15:05:58;;;;;;;5.03;3.60;;;23.10;83.00;;;;;;6242918;28;84069;-81
2023/05/05 15:09:00;;;;;;;4.45;3.70;;;23.10;83.00;;;;;;6238207;28;85329;-81
2023/05/05 15:12:01;;;;;;;4.00;3.55;;;23.00;83.00;;;;;;6224271;28;83686;-81
2023/05/05 15:15:07;;;;;;;4.28;3.63;;;23.00;82.90;;;;;;6235610;28;85471;-80
2023/05/05 15:18:09;;;;;;;3.80;3.50;;;23.10;82.90;;;;;;6226444;28;84055;-81
2023/05/05 15:21:11;;;;;;;3.72;3.40;;;23.10;82.90;;;;;;6247347;28;84036;-82
2023/05/05 15:24:13;;;;;;;3.72;3.30;;;23.00;82.80;;;;;;6246441;28;84016;-80
2023/05/05 15:27:15;;;;;;;3.70;3.40;;;23.00;82.80;;;;;;6221026;28;84083;-80
2023/05/05 15:30:18;;;;;;;3.88;3.47;;;23.00;82.80;;;;;;6231092;28;83416;-78
2023/05/05 15:33:20;;;;;;;3.75;3.40;;;23.10;82.80;;;;;;6238461;27;82988;-79
2023/05/05 15:36:23;;;;;;;4.72;3.50;;;23.10;82.70;;;;;;6231390;28;84176;-81
2023/05/05 15:39:25;;;;;;;3.83;3.42;;;23.10;82.70;;;;;;6210895;28;84962;-81
2023/05/05 15:42:27;;;;;;;5.05;3.50;;;23.10;82.70;;;;;;6223834;28;84073;-80
2023/05/05 15:45:30;;;;;;;3.95;3.28;;;23.10;82.70;;;;;;6211086;28;84052;-79
2023/05/05 15:48:34;;;;;;;3.65;3.35;;;23.10;82.70;;;;;;6224059;28;83113;-79
2023/05/05 15:51:36;;;;;;;3.70;3.40;;;23.00;82.50;;;;;;6219149;28;83231;-79
2023/05/05 15:54:38;;;;;;;3.47;3.17;;;23.00;82.50;;;;;;6215010;28;84085;-79